Time;durP1;ratioP1;P1;durP2;ratioP2;P2;SDS_P1;SDS_P2;PMS_P1;PMS_P2;Temp;Humidity;BMP_temperature;BMP_pressure;BME280_temperature;BME280_humidity;BME280_pressure;Samples;Min_cycle;Max_cycle;Signal;HPM_P1;HPM_P2
2022/03/19 00:03:20;;;;;;;9.70;3.60;;;;;;;;;;8143682;28;20428;-58
2022/03/19 00:07:20;;;;;;;5.57;3.17;;;;;;;;;;8142412;28;20532;-58
2022/03/19 00:11:23;;;;;;;9.68;3.65;;;;;;;;;;8142814;28;20392;-58
2022/03/19 00:15:23;;;;;;;6.50;3.33;;;;;;;;;;8142778;28;20159;-58
2022/03/19 00:19:24;;;;;;;8.02;3.40;;;;;;;;;;8142888;28;20050;-57
2022/03/19 00:23:24;;;;;;;8.40;3.67;;;;;;;;;;8142687;28;20020;-58
2022/03/19 00:27:25;;;;;;;5.65;3.25;;;;;;;;;;8144309;28;20480;-58
2022/03/19 00:31:25;;;;;;;7.63;3.22;;;;;;;;;;8139802;28;20377;-58
2022/03/19 00:35:25;;;;;;;5.10;3.05;;;;;;;;;;8142236;28;20360;-58
2022/03/19 00:39:26;;;;;;;7.23;3.27;;;;;;;;;;8141006;29;20099;-57
2022/03/19 00:43:26;;;;;;;4.82;2.92;;;;;;;;;;8143578;28;21088;-58
2022/03/19 00:47:26;;;;;;;8.40;3.20;;;;;;;;;;8142244;28;20082;-58
2022/03/19 00:51:26;;;;;;;6.53;2.92;;;;;;;;;;8143050;29;20097;-57
2022/03/19 00:55:26;;;;;;;8.50;3.30;;;;;;;;;;8139774;28;20023;-58
2022/03/19 00:59:27;;;;;;;7.45;2.97;;;;;;;;;;8144506;29;20043;-58
2022/03/19 01:03:27;;;;;;;8.63;3.38;;;;;;;;;;8139383;28;20634;-58
2022/03/19 01:07:27;;;;;;;9.38;3.25;;;;;;;;;;8140270;28;20030;-58
2022/03/19 01:11:28;;;;;;;9.40;2.90;;;;;;;;;;8138489;28;20038;-58
2022/03/19 01:15:28;;;;;;;11.35;3.20;;;;;;;;;;8142924;28;20039;-57
2022/03/19 01:23:47;;;;;;;7.57;2.90;;;;;;;;;;8143147;29;20034;-58
2022/03/19 01:27:48;;;;;;;13.00;3.20;;;;;;;;;;8142186;28;20485;-58
2022/03/19 01:31:48;;;;;;;8.50;2.95;;;;;;;;;;8141077;28;20481;-58
2022/03/19 01:35:48;;;;;;;11.43;3.13;;;;;;;;;;8141141;28;20078;-57
2022/03/19 01:39:49;;;;;;;10.38;2.88;;;;;;;;;;8143750;29;21006;-58
2022/03/19 01:43:49;;;;;;;6.90;2.95;;;;;;;;;;8143802;28;20500;-58
2022/03/19 01:47:50;;;;;;;7.82;3.22;;;;;;;;;;8142257;28;20557;-58
2022/03/19 01:51:50;;;;;;;7.53;2.97;;;;;;;;;;8140211;29;20404;-58
2022/03/19 01:55:53;;;;;;;10.00;3.42;;;;;;;;;;8141878;29;20027;-58
2022/03/19 01:59:54;;;;;;;10.40;2.92;;;;;;;;;;8140189;29;20019;-58
2022/03/19 02:03:54;;;;;;;7.53;3.25;;;;;;;;;;8141709;28;20039;-57
2022/03/19 02:07:54;;;;;;;7.53;3.08;;;;;;;;;;8147698;28;20317;-58
2022/03/19 02:11:54;;;;;;;6.10;2.90;;;;;;;;;;8147612;28;20529;-58
2022/03/19 02:15:54;;;;;;;14.18;3.50;;;;;;;;;;8147845;28;20442;-57
2022/03/19 02:19:55;;;;;;;8.88;2.63;;;;;;;;;;8145722;28;20042;-58
2022/03/19 02:28:15;;;;;;;7.80;3.03;;;;;;;;;;8147575;29;20288;-57
2022/03/19 02:32:15;;;;;;;8.38;3.05;;;;;;;;;;8143827;28;20564;-58
2022/03/19 02:36:18;;;;;;;6.22;2.88;;;;;;;;;;8148815;29;20328;-58
2022/03/19 02:40:19;;;;;;;6.15;2.70;;;;;;;;;;8147364;28;20031;-57
2022/03/19 02:44:19;;;;;;;8.27;2.78;;;;;;;;;;8146267;28;20035;-57
2022/03/19 02:48:20;;;;;;;9.60;2.70;;;;;;;;;;8145986;28;20451;-57
2022/03/19 02:52:20;;;;;;;7.57;2.75;;;;;;;;;;8145182;29;20810;-58
2022/03/19 02:56:23;;;;;;;5.43;2.70;;;;;;;;;;8148193;29;20593;-58
2022/03/19 03:00:23;;;;;;;12.45;2.90;;;;;;;;;;8146541;28;20508;-57
2022/03/19 03:04:24;;;;;;;7.15;2.83;;;;;;;;;;8144946;29;20043;-58
2022/03/19 03:08:24;;;;;;;8.32;3.25;;;;;;;;;;8145778;29;20763;-58
2022/03/19 03:12:25;;;;;;;9.68;3.40;;;;;;;;;;8142764;28;20032;-58
2022/03/19 03:16:26;;;;;;;9.40;3.30;;;;;;;;;;8143075;28;20335;-58
2022/03/19 03:20:26;;;;;;;11.23;3.13;;;;;;;;;;8144700;29;20485;-58
2022/03/19 03:24:29;;;;;;;9.20;3.15;;;;;;;;;;8143086;28;20038;-58
2022/03/19 03:28:29;;;;;;;7.25;3.15;;;;;;;;;;8146902;29;20251;-58
2022/03/19 03:32:29;;;;;;;10.70;4.13;;;;;;;;;;8142774;28;20067;-58
2022/03/19 03:36:29;;;;;;;9.63;3.53;;;;;;;;;;8145940;28;20026;-58
2022/03/19 03:40:29;;;;;;;10.20;3.70;;;;;;;;;;8144997;29;20079;-57
2022/03/19 03:44:30;;;;;;;9.23;3.90;;;;;;;;;;8144083;28;20438;-58
2022/03/19 03:48:30;;;;;;;8.27;3.40;;;;;;;;;;8143733;28;20546;-58
2022/03/19 03:52:31;;;;;;;11.02;3.90;;;;;;;;;;8146348;29;20283;-58
2022/03/19 03:56:31;;;;;;;8.97;3.60;;;;;;;;;;8145973;28;20035;-58
2022/03/19 04:00:31;;;;;;;11.25;3.70;;;;;;;;;;8142854;28;20385;-58
2022/03/19 04:04:32;;;;;;;11.45;3.90;;;;;;;;;;8145173;29;20035;-56
2022/03/19 04:08:32;;;;;;;7.55;3.42;;;;;;;;;;8144476;28;20062;-58
2022/03/19 04:12:32;;;;;;;8.80;3.70;;;;;;;;;;8143624;29;20038;-58
2022/03/19 04:16:32;;;;;;;10.13;4.30;;;;;;;;;;8143944;28;20313;-58
2022/03/19 04:20:32;;;;;;;9.73;3.80;;;;;;;;;;8142828;28;20286;-58
2022/03/19 04:24:33;;;;;;;6.22;3.33;;;;;;;;;;8145571;29;20070;-58
2022/03/19 04:28:33;;;;;;;14.90;4.13;;;;;;;;;;8144416;28;20058;-58
2022/03/19 04:32:50;;;;;;;10.63;3.53;;;;;;;;;;8142793;28;20047;-58
2022/03/19 04:36:50;;;;;;;11.93;4.35;;;;;;;;;;8143419;29;20110;-57
2022/03/19 04:40:51;;;;;;;8.70;3.15;;;;;;;;;;8142321;29;20499;-57
2022/03/19 04:44:51;;;;;;;9.02;3.38;;;;;;;;;;8142200;29;20688;-58
2022/03/19 04:48:53;;;;;;;10.75;3.88;;;;;;;;;;8143510;28;20795;-58
2022/03/19 04:52:54;;;;;;;7.45;3.63;;;;;;;;;;8142452;29;20140;-58
2022/03/19 04:56:54;;;;;;;10.25;4.05;;;;;;;;;;8141803;28;20027;-58
2022/03/19 05:00:54;;;;;;;14.45;3.70;;;;;;;;;;8142887;28;20397;-58
2022/03/19 05:04:55;;;;;;;11.20;3.40;;;;;;;;;;8143182;29;20569;-58
2022/03/19 05:13:15;;;;;;;11.57;3.72;;;;;;;;;;8141790;29;20592;-59
2022/03/19 05:17:15;;;;;;;9.98;3.88;;;;;;;;;;8140389;28;20147;-58
2022/03/19 05:21:17;;;;;;;9.73;3.88;;;;;;;;;;8143144;28;20047;-58
2022/03/19 05:25:17;;;;;;;15.48;4.00;;;;;;;;;;8142306;29;20031;-57
2022/03/19 05:29:17;;;;;;;9.23;4.05;;;;;;;;;;8142534;29;20031;-57
2022/03/19 05:33:18;;;;;;;7.97;3.50;;;;;;;;;;8142322;28;20455;-58
2022/03/19 05:37:18;;;;;;;10.32;3.67;;;;;;;;;;8143270;29;20026;-58
2022/03/19 05:41:18;;;;;;;10.43;4.07;;;;;;;;;;8140933;29;20020;-57
2022/03/19 05:45:20;;;;;;;6.13;3.10;;;;;;;;;;8142942;28;20019;-57
2022/03/19 05:49:20;;;;;;;6.55;3.25;;;;;;;;;;8140867;28;20027;-58
2022/03/19 05:53:20;;;;;;;12.73;4.03;;;;;;;;;;8143878;29;20039;-60
2022/03/19 05:57:21;;;;;;;11.88;3.90;;;;;;;;;;8142889;28;20164;-58
2022/03/19 06:01:26;;;;;;;7.97;3.20;;;;;;;;;;8151546;28;20114;-58
2022/03/19 06:05:26;;;;;;;8.57;3.25;;;;;;;;;;8148524;28;20117;-58
2022/03/19 06:09:26;;;;;;;12.07;3.53;;;;;;;;;;8143329;28;20190;-58
2022/03/19 06:13:26;;;;;;;8.15;3.50;;;;;;;;;;8143945;28;20024;-58
2022/03/19 06:17:26;;;;;;;6.57;3.50;;;;;;;;;;8143323;28;20086;-58
2022/03/19 06:21:28;;;;;;;8.05;3.40;;;;;;;;;;8140298;28;20333;-58
2022/03/19 06:25:28;;;;;;;7.80;3.72;;;;;;;;;;8142846;28;20034;-58
2022/03/19 06:29:28;;;;;;;6.78;2.88;;;;;;;;;;8144260;28;20579;-58
2022/03/19 06:33:28;;;;;;;5.20;2.77;;;;;;;;;;8153498;28;20035;-58
2022/03/19 06:37:29;;;;;;;9.05;3.65;;;;;;;;;;8153967;29;20821;-58
2022/03/19 06:41:29;;;;;;;7.22;3.15;;;;;;;;;;8155552;29;20068;-59
2022/03/19 06:45:29;;;;;;;7.95;2.90;;;;;;;;;;8147656;28;20090;-59
2022/03/19 06:49:30;;;;;;;8.68;3.13;;;;;;;;;;8146180;28;20027;-59
2022/03/19 06:53:30;;;;;;;7.82;2.85;;;;;;;;;;8147719;28;20043;-60
2022/03/19 06:57:30;;;;;;;5.07;2.67;;;;;;;;;;8149999;28;20248;-59
2022/03/19 07:01:31;;;;;;;8.20;2.80;;;;;;;;;;8147550;28;20059;-59
2022/03/19 07:05:31;;;;;;;12.30;3.05;;;;;;;;;;8146366;28;20268;-60
2022/03/19 07:09:31;;;;;;;6.47;2.83;;;;;;;;;;8148845;28;20066;-59
2022/03/19 07:13:32;;;;;;;8.80;3.03;;;;;;;;;;8148337;29;20069;-60
2022/03/19 07:17:32;;;;;;;5.87;2.83;;;;;;;;;;8146467;28;20374;-59
2022/03/19 07:21:32;;;;;;;8.82;3.15;;;;;;;;;;8147143;28;21123;-60
2022/03/19 07:25:36;;;;;;;7.28;3.00;;;;;;;;;;8148195;29;20031;-60
2022/03/19 07:29:36;;;;;;;;;;;;;;;;;;8147448;29;20155;-60
2022/03/19 07:33:36;;;;;;;10.43;3.03;;;;;;;;;;8148853;28;19954;-60
2022/03/19 07:37:40;;;;;;;7.53;3.07;;;;;;;;;;8143943;28;20110;-60
2022/03/19 07:41:48;;;;;;;7.93;3.60;;;;;;;;;;8147548;29;20429;-60
2022/03/19 07:45:50;;;;;;;8.30;3.30;;;;;;;;;;8148921;28;20139;-60
2022/03/19 07:49:50;;;;;;;7.07;3.67;;;;;;;;;;8147558;29;20051;-60
2022/03/19 07:53:50;;;;;;;7.72;3.78;;;;;;;;;;8150264;28;20027;-60
2022/03/19 07:57:51;;;;;;;9.15;4.30;;;;;;;;;;8145888;28;20031;-60
2022/03/19 08:01:51;;;;;;;9.15;3.60;;;;;;;;;;8145574;28;20306;-60
2022/03/19 08:05:51;;;;;;;7.32;3.75;;;;;;;;;;8147288;28;20031;-60
2022/03/19 08:09:51;;;;;;;10.20;4.50;;;;;;;;;;8146782;28;20045;-60
2022/03/19 08:13:51;;;;;;;10.10;4.13;;;;;;;;;;8146725;29;20027;-60
2022/03/19 08:17:52;;;;;;;11.52;4.63;;;;;;;;;;8146751;28;20066;-60
2022/03/19 08:21:52;;;;;;;9.68;4.43;;;;;;;;;;8144898;28;20019;-60
2022/03/19 08:25:53;;;;;;;12.05;5.10;;;;;;;;;;8148660;29;20045;-60
2022/03/19 08:29:53;;;;;;;12.68;5.50;;;;;;;;;;8146741;29;20027;-60
2022/03/19 08:33:55;;;;;;;11.88;5.10;;;;;;;;;;8143279;28;20044;-61
2022/03/19 08:42:14;;;;;;;14.45;5.70;;;;;;;;;;8146224;29;20849;-60
2022/03/19 08:46:14;;;;;;;9.52;5.43;;;;;;;;;;8144551;28;20036;-58
2022/03/19 08:50:14;;;;;;;13.85;5.68;;;;;;;;;;8146032;29;20032;-60
2022/03/19 08:54:15;;;;;;;11.93;5.63;;;;;;;;;;8143281;28;20027;-59
2022/03/19 08:58:16;;;;;;;10.80;5.43;;;;;;;;;;8146881;28;20260;-65
2022/03/19 09:02:16;;;;;;;10.43;5.30;;;;;;;;;;8146316;28;20030;-60
2022/03/19 09:06:17;;;;;;;11.23;5.32;;;;;;;;;;8145546;29;20033;-59
2022/03/19 09:10:17;;;;;;;11.38;5.55;;;;;;;;;;8144036;29;20215;-60
2022/03/19 09:14:19;;;;;;;11.10;5.10;;;;;;;;;;8144673;28;20062;-59
2022/03/19 09:18:20;;;;;;;10.35;5.18;;;;;;;;;;8145823;28;20086;-59
2022/03/19 09:22:20;;;;;;;11.10;5.85;;;;;;;;;;8144042;28;20031;-59
2022/03/19 09:26:20;;;;;;;14.88;6.05;;;;;;;;;;8143096;28;20857;-59
2022/03/19 09:30:20;;;;;;;12.20;6.60;;;;;;;;;;8140294;28;26341;-59
2022/03/19 09:34:51;;;;;;;13.55;5.90;;;;;;;;;;8145978;29;20031;-59
2022/03/19 09:38:51;;;;;;;12.18;5.97;;;;;;;;;;8144782;28;20088;-58
2022/03/19 09:42:53;;;;;;;12.07;5.40;;;;;;;;;;8144823;28;20038;-58
2022/03/19 09:46:53;;;;;;;11.05;5.70;;;;;;;;;;8142729;28;20039;-58
2022/03/19 09:50:54;;;;;;;10.88;5.75;;;;;;;;;;8144654;28;20585;-59
2022/03/19 09:55:01;;;;;;;10.70;5.88;;;;;;;;;;8145294;29;20620;-61
2022/03/19 09:59:02;;;;;;;13.40;5.78;;;;;;;;;;8144474;29;20384;-58
2022/03/19 10:03:03;;;;;;;12.63;4.80;;;;;;;;;;8140448;28;20512;-58
2022/03/19 10:11:27;;;;;;;10.98;5.57;;;;;;;;;;8145451;29;20254;-57
2022/03/19 10:15:27;;;;;;;;;;;;;;;;;;8146918;28;20050;-58
2022/03/19 10:19:28;;;;;;;13.48;5.80;;;;;;;;;;8142941;28;20471;-58
2022/03/19 10:23:29;;;;;;;11.75;5.22;;;;;;;;;;8143301;29;20598;-58
2022/03/19 10:27:30;;;;;;;13.43;5.75;;;;;;;;;;8148587;28;20023;-58
2022/03/19 10:31:37;;;;;;;11.35;5.20;;;;;;;;;;8150174;28;20050;-58
2022/03/19 10:35:42;;;;;;;10.95;4.40;;;;;;;;;;8150460;28;20031;-58
2022/03/19 10:39:45;;;;;;;7.88;4.15;;;;;;;;;;8149643;28;20730;-59
2022/03/19 10:43:46;;;;;;;12.07;5.10;;;;;;;;;;8150262;28;20031;-59
2022/03/19 10:47:47;;;;;;;7.82;4.82;;;;;;;;;;8149444;28;20856;-58
2022/03/19 10:51:48;;;;;;;7.70;3.72;;;;;;;;;;8150681;29;20055;-60
2022/03/19 10:55:48;;;;;;;5.72;3.40;;;;;;;;;;8148322;28;20023;-60
2022/03/19 10:59:48;;;;;;;6.32;3.08;;;;;;;;;;8154391;29;20119;-60
2022/03/19 11:03:49;;;;;;;6.85;2.70;;;;;;;;;;8159285;28;20039;-60
2022/03/19 11:07:51;;;;;;;6.03;3.75;;;;;;;;;;8151092;29;20148;-60
2022/03/19 11:11:56;;;;;;;9.15;4.53;;;;;;;;;;8149574;29;20039;-60
2022/03/19 11:15:59;;;;;;;8.30;3.70;;;;;;;;;;8147924;28;20094;-61
2022/03/19 11:20:00;;;;;;;9.00;3.00;;;;;;;;;;8169046;29;20034;-57
2022/03/19 11:24:04;;;;;;;5.00;2.65;;;;;;;;;;8160680;28;20456;-61
2022/03/19 11:28:07;;;;;;;6.20;3.83;;;;;;;;;;8155391;29;20015;-61
2022/03/19 11:32:08;;;;;;;7.85;3.92;;;;;;;;;;8147879;28;20114;-61
2022/03/19 11:36:09;;;;;;;6.73;3.07;;;;;;;;;;8147406;28;20713;-61
2022/03/19 11:40:12;;;;;;;7.47;3.70;;;;;;;;;;8154094;29;20283;-61
2022/03/19 11:44:17;;;;;;;6.90;3.80;;;;;;;;;;8152289;29;20027;-61
2022/03/19 11:48:36;;;;;;;7.63;3.67;;;;;;;;;;8147210;28;20180;-61
2022/03/19 11:52:40;;;;;;;7.13;3.67;;;;;;;;;;8151433;28;20488;-61
2022/03/19 11:56:42;;;;;;;7.80;3.80;;;;;;;;;;8158087;29;20110;-61
2022/03/19 12:00:44;;;;;;;7.80;3.88;;;;;;;;;;8149950;28;20050;-61
2022/03/19 12:04:48;;;;;;;6.47;2.85;;;;;;;;;;8147168;29;20031;-61
2022/03/19 12:08:49;;;;;;;7.30;3.15;;;;;;;;;;8146112;29;20067;-61
2022/03/19 12:12:50;;;;;;;6.55;3.00;;;;;;;;;;8145833;29;20424;-61
2022/03/19 12:16:50;;;;;;;5.60;2.90;;;;;;;;;;8145497;28;20517;-61
2022/03/19 12:20:51;;;;;;;7.10;3.00;;;;;;;;;;8148469;29;20032;-61
2022/03/19 12:24:55;;;;;;;8.13;3.10;;;;;;;;;;8144197;29;20793;-61
2022/03/19 12:28:59;;;;;;;4.18;2.65;;;;;;;;;;8146693;29;20806;-61
2022/03/19 12:32:59;;;;;;;6.38;3.63;;;;;;;;;;8143780;28;20367;-61
2022/03/19 12:37:01;;;;;;;7.90;3.65;;;;;;;;;;8144700;29;20453;-61
2022/03/19 12:45:34;;;;;;;6.25;3.55;;;;;;;;;;8143494;28;20206;-60
2022/03/19 12:49:34;;;;;;;5.65;3.28;;;;;;;;;;8143464;28;20031;-60
2022/03/19 12:53:38;;;;;;;8.65;3.70;;;;;;;;;;8147427;28;20036;-63
2022/03/19 12:57:39;;;;;;;6.45;3.13;;;;;;;;;;8145844;28;20030;-61
2022/03/19 13:01:41;;;;;;;7.90;3.70;;;;;;;;;;8140063;28;20035;-61
2022/03/19 13:05:49;;;;;;;6.43;3.63;;;;;;;;;;8147296;29;20031;-61
2022/03/19 13:09:49;;;;;;;6.43;3.40;;;;;;;;;;8144294;28;20023;-61
2022/03/19 13:13:49;;;;;;;5.85;3.47;;;;;;;;;;8143639;28;20488;-61
2022/03/19 13:17:49;;;;;;;7.63;3.70;;;;;;;;;;8143982;28;20039;-61
2022/03/19 13:21:50;;;;;;;4.63;2.97;;;;;;;;;;8143926;29;20034;-61
2022/03/19 13:25:50;;;;;;;5.38;2.60;;;;;;;;;;8144852;28;20054;-61
2022/03/19 13:29:50;;;;;;;6.97;2.63;;;;;;;;;;8144393;28;20335;-61
2022/03/19 13:33:51;;;;;;;6.60;2.33;;;;;;;;;;8144019;28;20287;-61
2022/03/19 13:37:51;;;;;;;4.10;1.67;;;;;;;;;;8145130;29;20081;-61
2022/03/19 13:41:52;;;;;;;3.25;1.83;;;;;;;;;;8142423;29;20544;-61
2022/03/19 13:46:15;;;;;;;8.07;2.00;;;;;;;;;;8143841;28;20035;-61
2022/03/19 13:50:16;;;;;;;3.03;1.90;;;;;;;;;;8142582;29;20031;-61
2022/03/19 13:54:17;;;;;;;5.00;2.00;;;;;;;;;;8143505;28;20585;-61
2022/03/19 13:58:17;;;;;;;3.90;1.88;;;;;;;;;;8146604;29;20027;-61
2022/03/19 14:02:23;;;;;;;2.90;1.88;;;;;;;;;;8147918;28;20521;-61
2022/03/19 14:06:33;;;;;;;3.40;1.92;;;;;;;;;;8151892;28;20043;-61
2022/03/19 14:10:35;;;;;;;5.72;1.63;;;;;;;;;;8149161;28;20074;-61
2022/03/19 14:14:36;;;;;;;3.58;1.80;;;;;;;;;;8150386;29;20796;-61
2022/03/19 14:18:37;;;;;;;2.30;1.50;;;;;;;;;;8148030;28;20958;-61
2022/03/19 14:22:37;;;;;;;4.00;2.15;;;;;;;;;;8151167;29;20079;-61
2022/03/19 14:26:37;;;;;;;3.35;1.80;;;;;;;;;;8151425;29;20050;-61
2022/03/19 14:30:38;;;;;;;2.85;1.63;;;;;;;;;;8148531;28;20067;-61
2022/03/19 14:34:38;;;;;;;5.30;1.95;;;;;;;;;;8149659;29;20031;-61
2022/03/19 14:38:41;;;;;;;4.40;1.55;;;;;;;;;;8149333;28;20294;-61
2022/03/19 14:42:41;;;;;;;4.75;1.52;;;;;;;;;;8152298;29;20098;-61
2022/03/19 14:46:41;;;;;;;3.28;1.60;;;;;;;;;;8149348;28;20574;-61
2022/03/19 14:50:41;;;;;;;7.30;1.52;;;;;;;;;;8147970;29;20027;-61
2022/03/19 14:54:42;;;;;;;3.43;1.30;;;;;;;;;;8150086;28;20035;-61
2022/03/19 14:58:42;;;;;;;2.67;1.40;;;;;;;;;;8149865;28;20242;-61
2022/03/19 15:02:43;;;;;;;2.45;1.60;;;;;;;;;;8149955;28;20126;-60
2022/03/19 15:06:43;;;;;;;3.35;1.67;;;;;;;;;;8149782;28;20587;-60
2022/03/19 15:10:44;;;;;;;2.88;1.38;;;;;;;;;;8146528;28;20492;-61
2022/03/19 15:14:44;;;;;;;2.08;1.30;;;;;;;;;;8146020;29;20583;-61
2022/03/19 15:18:45;;;;;;;3.47;1.30;;;;;;;;;;8148046;28;20659;-61
2022/03/19 15:22:46;;;;;;;4.35;1.23;;;;;;;;;;8148114;29;20259;-60
2022/03/19 15:26:47;;;;;;;3.67;1.45;;;;;;;;;;8148762;29;20027;-61
2022/03/19 15:30:47;;;;;;;3.90;1.52;;;;;;;;;;8144364;28;20961;-60
2022/03/19 15:34:47;;;;;;;3.78;1.40;;;;;;;;;;8150042;28;20040;-61
2022/03/19 15:38:47;;;;;;;3.15;1.50;;;;;;;;;;8149531;29;20183;-61
2022/03/19 15:42:48;;;;;;;7.07;1.67;;;;;;;;;;8147389;29;20744;-60
2022/03/19 15:46:48;;;;;;;3.45;1.45;;;;;;;;;;8146267;28;20185;-61
2022/03/19 15:50:48;;;;;;;2.90;1.30;;;;;;;;;;8146404;29;20487;-61
2022/03/19 15:54:48;;;;;;;3.50;1.17;;;;;;;;;;8146982;28;20540;-61
2022/03/19 15:58:49;;;;;;;2.27;1.20;;;;;;;;;;8150729;29;20019;-60
2022/03/19 16:02:49;;;;;;;2.10;1.10;;;;;;;;;;8146296;28;20644;-61
2022/03/19 16:06:50;;;;;;;2.97;1.00;;;;;;;;;;8148530;28;20514;-60
2022/03/19 16:10:50;;;;;;;3.53;1.35;;;;;;;;;;8145292;28;20015;-60
2022/03/19 16:14:51;;;;;;;3.57;1.10;;;;;;;;;;8146728;28;20584;-60
2022/03/19 16:18:51;;;;;;;4.88;1.17;;;;;;;;;;8146605;28;20852;-60
2022/03/19 16:22:51;;;;;;;4.28;1.40;;;;;;;;;;8147909;28;20024;-60
2022/03/19 16:26:51;;;;;;;5.15;1.20;;;;;;;;;;8145884;28;20494;-60
2022/03/19 16:30:52;;;;;;;4.30;0.93;;;;;;;;;;8145859;28;20031;-61
2022/03/19 16:34:53;;;;;;;2.83;0.98;;;;;;;;;;8146779;28;20079;-61
2022/03/19 16:38:53;;;;;;;4.43;1.10;;;;;;;;;;8145940;28;20043;-60
2022/03/19 16:42:53;;;;;;;3.17;1.15;;;;;;;;;;8145223;28;20027;-60
2022/03/19 16:46:54;;;;;;;2.22;1.05;;;;;;;;;;8145598;28;20040;-60
2022/03/19 16:50:54;;;;;;;2.72;1.10;;;;;;;;;;8145845;28;20034;-60
2022/03/19 16:54:54;;;;;;;3.75;1.23;;;;;;;;;;8145374;28;20444;-60
2022/03/19 16:58:54;;;;;;;2.17;1.30;;;;;;;;;;8145670;28;20016;-60
2022/03/19 17:02:54;;;;;;;4.13;1.17;;;;;;;;;;8144985;28;20607;-60
2022/03/19 17:06:58;;;;;;;3.42;1.30;;;;;;;;;;8147877;28;20533;-60
2022/03/19 17:11:00;;;;;;;2.50;1.20;;;;;;;;;;8144570;28;20023;-60
2022/03/19 17:15:00;;;;;;;3.75;1.05;;;;;;;;;;8144733;29;20453;-60
2022/03/19 17:19:00;;;;;;;3.53;1.30;;;;;;;;;;8145002;28;20153;-60
2022/03/19 17:23:00;;;;;;;1.57;0.90;;;;;;;;;;8145072;29;20024;-60
2022/03/19 17:27:00;;;;;;;3.03;1.33;;;;;;;;;;8146050;28;20290;-60
2022/03/19 17:31:01;;;;;;;3.38;1.25;;;;;;;;;;8144277;28;20035;-60
2022/03/19 17:35:01;;;;;;;2.65;1.20;;;;;;;;;;8145926;28;20572;-60
2022/03/19 17:39:02;;;;;;;2.50;1.30;;;;;;;;;;8142939;29;20026;-60
2022/03/19 17:43:02;;;;;;;2.03;1.00;;;;;;;;;;8144956;29;20082;-60
2022/03/19 17:47:02;;;;;;;5.20;1.63;;;;;;;;;;8143409;28;20075;-60
2022/03/19 17:51:03;;;;;;;3.78;1.30;;;;;;;;;;8144000;28;20023;-60
2022/03/19 17:55:06;;;;;;;4.82;1.65;;;;;;;;;;8143524;29;20019;-60
2022/03/19 17:59:06;;;;;;;5.63;1.43;;;;;;;;;;8144967;29;20107;-60
2022/03/19 18:03:06;;;;;;;1.77;1.20;;;;;;;;;;8143157;28;20114;-60
2022/03/19 18:07:07;;;;;;;12.02;1.65;;;;;;;;;;8145924;29;20015;-60
2022/03/19 18:11:07;;;;;;;4.55;1.52;;;;;;;;;;8143193;29;20031;-60
2022/03/19 18:15:07;;;;;;;8.30;1.65;;;;;;;;;;8146371;28;20031;-60
2022/03/19 18:19:08;;;;;;;4.70;1.85;;;;;;;;;;8142965;29;20031;-60
2022/03/19 18:23:08;;;;;;;5.85;1.65;;;;;;;;;;8144703;29;20031;-60
2022/03/19 18:27:08;;;;;;;2.72;1.50;;;;;;;;;;8143007;29;20441;-60
2022/03/19 18:31:09;;;;;;;5.13;2.13;;;;;;;;;;8140895;28;20460;-60
2022/03/19 18:35:10;;;;;;;5.38;2.58;;;;;;;;;;8145607;29;20031;-60
2022/03/19 18:39:10;;;;;;;6.00;3.00;;;;;;;;;;8144086;28;20432;-60
2022/03/19 18:43:10;;;;;;;4.85;2.97;;;;;;;;;;8144573;28;20043;-60
2022/03/19 18:47:11;;;;;;;7.97;3.10;;;;;;;;;;8141519;28;20864;-60
2022/03/19 18:51:11;;;;;;;7.63;3.95;;;;;;;;;;8149537;29;20037;-60
2022/03/19 18:55:12;;;;;;;9.90;3.88;;;;;;;;;;8148544;29;20066;-60
2022/03/19 18:59:13;;;;;;;7.22;4.78;;;;;;;;;;8150404;29;20609;-60
2022/03/19 19:03:13;;;;;;;7.88;4.57;;;;;;;;;;8148186;28;20125;-60
2022/03/19 19:07:13;;;;;;;8.00;4.72;;;;;;;;;;8148025;29;20370;-60
2022/03/19 19:11:14;;;;;;;8.10;4.60;;;;;;;;;;8147315;29;20031;-60
2022/03/19 19:15:14;;;;;;;6.57;4.50;;;;;;;;;;8147245;28;20063;-60
2022/03/19 19:19:14;;;;;;;6.20;4.27;;;;;;;;;;8150284;29;20078;-60
2022/03/19 19:23:14;;;;;;;7.03;4.72;;;;;;;;;;8148826;28;20354;-60
2022/03/19 19:27:14;;;;;;;7.70;4.95;;;;;;;;;;8147210;29;20027;-60
2022/03/19 19:31:16;;;;;;;7.68;4.40;;;;;;;;;;8147410;28;20046;-60
2022/03/19 19:35:16;;;;;;;6.50;4.55;;;;;;;;;;8146641;29;20444;-60
2022/03/19 19:39:16;;;;;;;8.30;5.05;;;;;;;;;;8146148;29;20066;-60
2022/03/19 19:43:16;;;;;;;9.63;5.82;;;;;;;;;;8147863;28;20121;-60
2022/03/19 19:47:16;;;;;;;11.20;5.78;;;;;;;;;;8144865;28;20040;-60
2022/03/19 19:51:17;;;;;;;10.73;5.78;;;;;;;;;;8147466;28;20346;-60
2022/03/19 19:55:17;;;;;;;9.70;6.50;;;;;;;;;;8149380;29;20031;-60
2022/03/19 19:59:17;;;;;;;10.35;6.35;;;;;;;;;;8149203;29;20239;-60
2022/03/19 20:03:17;;;;;;;12.27;7.45;;;;;;;;;;8145833;28;20039;-60
2022/03/19 20:11:36;;;;;;;15.63;9.32;;;;;;;;;;8145450;29;20038;-60
2022/03/19 20:15:37;;;;;;;15.80;11.57;;;;;;;;;;8145743;28;20047;-60
2022/03/19 20:19:37;;;;;;;17.40;11.93;;;;;;;;;;8145335;29;20485;-60
2022/03/19 20:23:37;;;;;;;18.23;11.98;;;;;;;;;;8147526;28;20024;-60
2022/03/19 20:27:38;;;;;;;18.63;12.68;;;;;;;;;;8146651;28;20046;-60
2022/03/19 20:31:39;;;;;;;18.60;13.27;;;;;;;;;;8146059;28;20039;-60
2022/03/19 20:35:39;;;;;;;22.52;13.48;;;;;;;;;;8145610;29;20019;-60
2022/03/19 20:39:39;;;;;;;19.67;12.75;;;;;;;;;;8144955;28;20027;-60
2022/03/19 20:43:39;;;;;;;20.17;13.20;;;;;;;;;;8145008;29;20114;-60
2022/03/19 20:47:40;;;;;;;22.38;13.55;;;;;;;;;;8143691;28;20126;-60
2022/03/19 20:51:40;;;;;;;19.25;13.35;;;;;;;;;;8146516;28;20889;-60
2022/03/19 20:55:40;;;;;;;19.23;13.15;;;;;;;;;;8144826;28;20027;-60
2022/03/19 20:59:41;;;;;;;18.45;13.25;;;;;;;;;;8143365;28;20738;-60
2022/03/19 21:03:41;;;;;;;22.58;14.07;;;;;;;;;;8143578;28;20051;-60
2022/03/19 21:07:42;;;;;;;19.00;11.93;;;;;;;;;;8147279;28;20210;-60
2022/03/19 21:11:42;;;;;;;18.95;13.30;;;;;;;;;;8143577;28;20027;-60
2022/03/19 21:15:43;;;;;;;21.90;13.03;;;;;;;;;;8143988;28;20106;-60
2022/03/19 21:19:43;;;;;;;21.52;13.20;;;;;;;;;;8143683;28;20371;-60
2022/03/19 21:23:43;;;;;;;20.48;12.27;;;;;;;;;;8142892;28;20054;-60
2022/03/19 21:27:47;;;;;;;20.83;13.27;;;;;;;;;;8147409;28;20082;-60
2022/03/19 21:31:47;;;;;;;18.88;13.20;;;;;;;;;;8144586;28;20065;-60
2022/03/19 21:35:48;;;;;;;23.05;13.38;;;;;;;;;;8143432;28;20493;-59
2022/03/19 21:44:08;;;;;;;21.35;13.13;;;;;;;;;;8144998;29;20127;-60
2022/03/19 21:48:09;;;;;;;21.58;12.52;;;;;;;;;;8141815;28;20039;-60
2022/03/19 21:52:09;;;;;;;18.90;11.90;;;;;;;;;;8144259;29;20062;-60
2022/03/19 21:56:10;;;;;;;21.70;11.95;;;;;;;;;;8140917;28;20023;-60
2022/03/19 22:00:12;;;;;;;21.73;12.20;;;;;;;;;;8141600;28;20042;-60
2022/03/19 22:04:12;;;;;;;21.90;12.02;;;;;;;;;;8146459;28;20086;-60
2022/03/19 22:08:12;;;;;;;19.95;12.25;;;;;;;;;;8144045;29;20434;-60
2022/03/19 22:12:13;;;;;;;19.60;12.07;;;;;;;;;;8143027;28;20111;-60
2022/03/19 22:16:13;;;;;;;19.33;12.00;;;;;;;;;;8138848;28;20361;-60
2022/03/19 22:20:16;;;;;;;19.00;11.50;;;;;;;;;;8141766;28;20032;-60
2022/03/19 22:24:16;;;;;;;15.80;11.15;;;;;;;;;;8145938;29;20030;-59
2022/03/19 22:28:17;;;;;;;17.23;11.93;;;;;;;;;;8145676;28;20439;-60
2022/03/19 22:32:17;;;;;;;21.02;12.85;;;;;;;;;;8146845;28;20035;-59
2022/03/19 22:36:18;;;;;;;21.00;12.65;;;;;;;;;;8150383;29;20907;-60
2022/03/19 22:40:19;;;;;;;17.83;11.75;;;;;;;;;;8148251;29;20548;-60
2022/03/19 22:44:19;;;;;;;17.45;12.20;;;;;;;;;;8150289;28;20572;-61
2022/03/19 22:48:20;;;;;;;18.60;13.07;;;;;;;;;;8148722;28;20086;-60
2022/03/19 22:52:22;;;;;;;20.63;12.15;;;;;;;;;;8147721;28;20066;-60
2022/03/19 22:56:22;;;;;;;18.20;13.02;;;;;;;;;;8150894;28;20098;-60
2022/03/19 23:00:23;;;;;;;18.10;12.48;;;;;;;;;;8147738;28;20040;-60
2022/03/19 23:04:23;;;;;;;18.30;12.45;;;;;;;;;;8148295;28;20031;-60
2022/03/19 23:08:24;;;;;;;18.50;12.70;;;;;;;;;;8148521;28;20101;-59
2022/03/19 23:12:24;;;;;;;19.17;12.98;;;;;;;;;;8145471;28;20034;-60
2022/03/19 23:16:25;;;;;;;22.20;13.20;;;;;;;;;;8146462;28;20158;-60
2022/03/19 23:20:25;;;;;;;17.77;12.73;;;;;;;;;;8147826;28;20062;-60
2022/03/19 23:24:26;;;;;;;19.35;13.48;;;;;;;;;;8145103;28;20031;-60
2022/03/19 23:28:26;;;;;;;17.60;12.80;;;;;;;;;;8146615;28;20062;-59
2022/03/19 23:32:28;;;;;;;20.38;13.05;;;;;;;;;;8145584;28;21521;-60
2022/03/19 23:36:28;;;;;;;16.80;12.40;;;;;;;;;;8148183;29;20046;-60
2022/03/19 23:40:29;;;;;;;15.80;11.90;;;;;;;;;;8147265;28;20486;-59
2022/03/19 23:44:29;;;;;;;18.08;12.88;;;;;;;;;;8147625;28;20038;-60
2022/03/19 23:48:29;;;;;;;21.90;13.05;;;;;;;;;;8145801;28;20268;-60
2022/03/19 23:52:29;;;;;;;19.85;12.27;;;;;;;;;;8149424;29;20318;-60
2022/03/19 23:56:30;;;;;;;19.70;12.40;;;;;;;;;;8147370;28;20486;-60
